Time;durP1;ratioP1;P1;durP2;ratioP2;P2;SDS_P1;SDS_P2;PMS_P1;PMS_P2;Temp;Humidity;BMP_temperature;BMP_pressure;BME280_temperature;BME280_humidity;BME280_pressure;Samples;Min_cycle;Max_cycle;Signal;HPM_P1;HPM_P2
2024/01/15 00:01:42;;;;;;;;;;;9.30;99.90;;;;;;5115294;28;19948;-76
2024/01/15 00:04:07;;;;;;;;;;;9.30;99.90;;;;;;5115576;28;19907;-76
2024/01/15 00:06:33;;;;;;;;;;;9.30;99.90;;;;;;5115695;28;19910;-75
2024/01/15 00:08:58;;;;;;;;;;;9.30;99.90;;;;;;5115124;28;19915;-76
2024/01/15 00:11:24;;;;;;;;;;;9.30;99.90;;;;;;5116132;28;20359;-76
2024/01/15 00:13:49;;;;;;;;;;;9.30;99.90;;;;;;5116397;28;19907;-75
2024/01/15 00:16:15;;;;;;;;;;;9.40;99.90;;;;;;5109454;28;19990;-74
2024/01/15 00:18:41;;;;;;;;;;;9.40;99.90;;;;;;5116585;28;19998;-75
2024/01/15 00:21:06;;;;;;;;;;;9.40;99.90;;;;;;5116618;28;19907;-75
2024/01/15 00:23:32;;;;;;;;;;;9.40;99.90;;;;;;5116247;28;19930;-75
2024/01/15 00:25:57;;;;;;;;;;;9.40;99.90;;;;;;5116243;28;19907;-77
2024/01/15 00:28:23;;;;;;;;;;;9.50;99.90;;;;;;5116502;28;20298;-75
2024/01/15 00:30:48;;;;;;;;;;;9.50;99.90;;;;;;5116101;28;19911;-75
2024/01/15 00:33:14;;;;;;;;;;;9.50;99.90;;;;;;5116543;28;20443;-75
2024/01/15 00:35:40;;;;;;;;;;;9.60;99.90;;;;;;5116172;28;20391;-74
2024/01/15 00:38:06;;;;;;;;;;;9.50;99.90;;;;;;5115976;28;20283;-74
2024/01/15 00:40:31;;;;;;;;;;;9.50;99.90;;;;;;5116267;28;19911;-75
2024/01/15 00:42:57;;;;;;;;;;;9.60;99.90;;;;;;5116468;28;19908;-74
2024/01/15 00:45:22;;;;;;;;;;;9.50;99.90;;;;;;5116321;28;19915;-74
2024/01/15 00:47:48;;;;;;;;;;;9.60;99.90;;;;;;5116417;28;20349;-74
2024/01/15 00:50:14;;;;;;;;;;;9.60;99.90;;;;;;5116357;28;19957;-74
2024/01/15 00:52:40;;;;;;;;;;;9.50;99.90;;;;;;5116288;28;19903;-74
2024/01/15 00:55:05;;;;;;;;;;;9.50;99.90;;;;;;5115934;28;19908;-75
2024/01/15 00:57:31;;;;;;;;;;;9.40;99.90;;;;;;5114913;28;19954;-74
2024/01/15 00:59:56;;;;;;;;;;;9.40;99.90;;;;;;5114619;28;19908;-75
2024/01/15 01:02:22;;;;;;;;;;;9.30;99.90;;;;;;5116085;28;19903;-74
2024/01/15 01:04:47;;;;;;;;;;;9.30;99.90;;;;;;5114472;28;19914;-75
2024/01/15 01:07:13;;;;;;;;;;;9.30;99.90;;;;;;5114453;28;19915;-74
2024/01/15 01:09:38;;;;;;;;;;;9.30;99.90;;;;;;5115813;28;19922;-75
2024/01/15 01:12:04;;;;;;;;;;;9.40;99.90;;;;;;5114702;28;19910;-74
2024/01/15 01:14:29;;;;;;;;;;;9.40;99.90;;;;;;5115894;27;19903;-75
2024/01/15 01:16:55;;;;;;;;;;;9.50;99.90;;;;;;5102586;28;19911;-74
2024/01/15 01:19:20;;;;;;;;;;;9.50;99.90;;;;;;5110869;28;19908;-74
2024/01/15 01:21:46;;;;;;;;;;;9.60;99.90;;;;;;5114816;28;19908;-74
2024/01/15 01:24:11;;;;;;;;;;;9.60;99.90;;;;;;5115332;28;19905;-74
2024/01/15 01:26:37;;;;;;;;;;;9.70;99.90;;;;;;5115883;28;19939;-74
2024/01/15 01:29:03;;;;;;;;;;;9.70;99.90;;;;;;5115440;28;19939;-74
2024/01/15 01:31:28;;;;;;;;;;;9.70;99.90;;;;;;5115857;28;19919;-74
2024/01/15 01:33:54;;;;;;;;;;;9.70;99.90;;;;;;5116093;28;21343;-74
2024/01/15 01:36:19;;;;;;;;;;;9.60;99.90;;;;;;5115746;28;19908;-75
2024/01/15 01:38:45;;;;;;;;;;;9.60;99.90;;;;;;5115480;28;20034;-75
2024/01/15 01:41:10;;;;;;;;;;;9.60;99.90;;;;;;5114287;28;19995;-75
2024/01/15 01:43:36;;;;;;;;;;;9.60;99.90;;;;;;5115556;28;19904;-75
2024/01/15 01:46:03;;;;;;;;;;;9.50;99.90;;;;;;5117882;28;19923;-75
2024/01/15 01:48:29;;;;;;;;;;;9.40;99.90;;;;;;5119620;28;19908;-75
2024/01/15 01:50:57;;;;;;;;;;;9.30;99.90;;;;;;5119202;28;20281;-74
2024/01/15 01:53:23;;;;;;;;;;;9.30;99.90;;;;;;5118949;28;20325;-75
2024/01/15 01:55:49;;;;;;;;;;;9.30;99.90;;;;;;5118045;28;19954;-75
2024/01/15 01:58:14;;;;;;;;;;;9.20;99.90;;;;;;5119078;28;19908;-75
2024/01/15 02:00:40;;;;;;;;;;;9.10;99.90;;;;;;5118020;28;19910;-75
2024/01/15 02:03:07;;;;;;;;;;;8.90;99.90;;;;;;5118014;28;19923;-75
2024/01/15 02:05:34;;;;;;;;;;;8.80;99.90;;;;;;5119329;28;19915;-75
2024/01/15 02:07:59;;;;;;;;;;;8.60;99.90;;;;;;5110423;28;19998;-75
2024/01/15 02:10:25;;;;;;;;;;;8.50;99.90;;;;;;5119124;28;19962;-75
2024/01/15 02:12:50;;;;;;;;;;;8.40;99.90;;;;;;5118787;28;19904;-75
2024/01/15 02:15:16;;;;;;;;;;;8.40;99.90;;;;;;5113765;28;19911;-76
2024/01/15 02:18:04;;;;;;;;;;;8.30;99.90;;;;;;5115420;28;20375;-75
2024/01/15 02:20:30;;;;;;;;;;;8.30;99.90;;;;;;5117452;28;20335;-75
2024/01/15 02:23:12;;;;;;;;;;;8.30;99.90;;;;;;5117357;27;19912;-75
2024/01/15 02:25:41;;;;;;;;;;;8.30;99.90;;;;;;5118476;27;19908;-75
2024/01/15 02:28:11;;;;;;;;;;;8.40;99.90;;;;;;5117140;28;19939;-75
2024/01/15 02:30:39;;;;;;;;;;;8.50;99.90;;;;;;5118527;28;20391;-75
2024/01/15 02:33:04;;;;;;;;;;;8.50;99.90;;;;;;5111489;28;20481;-75
2024/01/15 02:35:30;;;;;;;;;;;8.60;99.90;;;;;;5115221;28;21138;-75
2024/01/15 02:37:55;;;;;;;;;;;8.60;99.90;;;;;;5100006;28;19911;-75
2024/01/15 02:40:21;;;;;;;;;;;8.60;99.90;;;;;;5097497;28;20387;-75
2024/01/15 02:42:47;;;;;;;;;;;8.60;99.90;;;;;;5117229;28;20367;-74
2024/01/15 02:45:12;;;;;;;;;;;8.50;99.90;;;;;;5115723;28;19904;-75
2024/01/15 02:47:38;;;;;;;;;;;8.40;99.90;;;;;;5117948;28;19922;-75
2024/01/15 02:50:04;;;;;;;;;;;8.40;99.90;;;;;;5117962;27;20283;-74
2024/01/15 02:52:29;;;;;;;;;;;8.50;99.90;;;;;;5113697;28;20291;-74
2024/01/15 02:54:55;;;;;;;;;;;8.40;99.90;;;;;;5117839;28;19914;-74
2024/01/15 02:57:20;;;;;;;;;;;8.40;99.90;;;;;;5117287;28;19922;-75
2024/01/15 02:59:46;;;;;;;;;;;8.40;99.90;;;;;;5116668;28;19908;-74
2024/01/15 03:02:11;;;;;;;;;;;8.50;99.90;;;;;;5118041;28;19907;-75
2024/01/15 03:04:37;;;;;;;;;;;8.50;99.90;;;;;;5117840;28;19908;-75
2024/01/15 03:07:02;;;;;;;;;;;8.40;99.90;;;;;;5116411;28;19910;-75
2024/01/15 03:09:28;;;;;;;;;;;8.40;99.90;;;;;;5115988;28;20439;-74
2024/01/15 03:11:53;;;;;;;;;;;8.40;99.90;;;;;;5116447;28;19961;-74
2024/01/15 03:14:20;;;;;;;;;;;8.60;99.90;;;;;;5116101;28;20291;-75
2024/01/15 03:16:45;;;;;;;;;;;8.70;99.90;;;;;;5110672;28;19910;-75
2024/01/15 03:19:11;;;;;;;;;;;8.70;99.90;;;;;;5117642;28;19907;-75
2024/01/15 03:21:36;;;;;;;;;;;8.80;99.90;;;;;;5117688;28;19907;-75
2024/01/15 03:24:02;;;;;;;;;;;8.80;99.90;;;;;;5117540;28;19908;-75
2024/01/15 03:26:27;;;;;;;;;;;8.70;99.90;;;;;;5115952;28;20252;-76
2024/01/15 03:28:53;;;;;;;;;;;8.70;99.90;;;;;;5117656;28;20319;-75
2024/01/15 03:31:18;;;;;;;;;;;8.70;99.90;;;;;;5115939;28;19912;-75
2024/01/15 03:33:44;;;;;;;;;;;8.70;99.90;;;;;;5117423;28;19907;-75
2024/01/15 03:36:10;;;;;;;;;;;8.60;99.90;;;;;;5117413;28;19915;-75
2024/01/15 03:38:38;;;;;;;;;;;8.70;99.90;;;;;;5116610;28;19951;-75
2024/01/15 03:41:04;;;;;;;;;;;8.70;99.90;;;;;;5117179;28;19956;-75
2024/01/15 03:43:29;;;;;;;;;;;8.80;99.90;;;;;;5116798;28;19911;-75
2024/01/15 03:45:55;;;;;;;;;;;8.90;99.90;;;;;;5117126;28;20336;-75
2024/01/15 03:48:20;;;;;;;;;;;8.90;99.90;;;;;;5115636;28;20434;-75
2024/01/15 03:50:46;;;;;;;;;;;8.90;99.90;;;;;;5116949;28;20376;-75
2024/01/15 03:53:11;;;;;;;;;;;8.90;99.90;;;;;;5115544;28;19903;-75
2024/01/15 03:55:37;;;;;;;;;;;9.00;99.90;;;;;;5115320;28;19912;-75
2024/01/15 03:58:02;;;;;;;;;;;9.00;99.90;;;;;;5115749;28;19923;-75
2024/01/15 04:00:28;;;;;;;;;;;9.00;99.90;;;;;;5116503;28;19974;-75
2024/01/15 04:02:54;;;;;;;;;;;9.10;99.90;;;;;;5109289;28;19915;-75
2024/01/15 04:05:19;;;;;;;;;;;9.10;99.90;;;;;;5097979;28;19911;-75
2024/01/15 04:07:45;;;;;;;;;;;9.10;99.90;;;;;;5112674;28;19907;-75
2024/01/15 04:10:10;;;;;;;;;;;9.00;99.90;;;;;;5116922;28;19911;-75
2024/01/15 04:12:36;;;;;;;;;;;9.00;99.90;;;;;;5116823;28;20237;-75
2024/01/15 04:15:01;;;;;;;;;;;8.90;99.90;;;;;;5115728;28;19938;-75
2024/01/15 04:17:27;;;;;;;;;;;8.90;99.90;;;;;;5113271;28;19910;-75
2024/01/15 04:19:52;;;;;;;;;;;8.90;99.90;;;;;;5115407;28;19903;-75
2024/01/15 04:22:18;;;;;;;;;;;8.90;99.90;;;;;;5116302;28;19930;-75
2024/01/15 04:24:43;;;;;;;;;;;8.90;99.90;;;;;;5116526;28;19908;-75
2024/01/15 04:27:09;;;;;;;;;;;8.90;99.90;;;;;;5116073;27;19915;-75
2024/01/15 04:29:37;;;;;;;;;;;8.90;99.90;;;;;;5115079;28;19912;-75
2024/01/15 04:32:02;;;;;;;;;;;8.80;99.90;;;;;;5112157;28;19911;-75
2024/01/15 04:34:28;;;;;;;;;;;8.90;99.90;;;;;;5115163;28;19915;-74
2024/01/15 04:36:53;;;;;;;;;;;8.90;99.90;;;;;;5116042;28;19911;-75
2024/01/15 04:39:19;;;;;;;;;;;8.90;99.90;;;;;;5116162;28;19951;-75
2024/01/15 04:41:44;;;;;;;;;;;8.90;99.90;;;;;;5116297;28;20428;-75
2024/01/15 04:44:10;;;;;;;;;;;9.00;99.90;;;;;;5116517;28;19904;-75
2024/01/15 04:46:36;;;;;;;;;;;9.00;99.90;;;;;;5114608;28;19907;-75
2024/01/15 04:49:02;;;;;;;;;;;9.00;99.90;;;;;;5116414;28;19914;-75
2024/01/15 04:51:27;;;;;;;;;;;9.00;99.90;;;;;;5112453;28;19908;-72
2024/01/15 04:53:53;;;;;;;;;;;9.00;99.90;;;;;;5106662;28;19904;-75
2024/01/15 04:56:18;;;;;;;;;;;9.00;99.90;;;;;;5115790;28;19919;-75
2024/01/15 04:58:44;;;;;;;;;;;9.00;99.90;;;;;;5116185;27;19903;-75
2024/01/15 05:01:10;;;;;;;;;;;9.00;99.90;;;;;;5115701;28;19943;-75
2024/01/15 05:03:35;;;;;;;;;;;9.00;99.90;;;;;;5114897;28;19912;-75
2024/01/15 05:06:01;;;;;;;;;;;9.00;99.90;;;;;;5115367;28;20100;-75
2024/01/15 05:08:26;;;;;;;;;;;9.00;99.90;;;;;;5115545;28;19908;-75
2024/01/15 05:10:52;;;;;;;;;;;9.00;99.90;;;;;;5113883;28;19923;-75
2024/01/15 05:13:17;;;;;;;;;;;9.00;99.90;;;;;;5116183;28;19915;-74
2024/01/15 05:15:43;;;;;;;;;;;9.00;99.90;;;;;;5109605;28;19904;-76
2024/01/15 05:18:08;;;;;;;;;;;9.00;99.90;;;;;;5114139;28;19945;-75
2024/01/15 05:20:34;;;;;;;;;;;9.00;99.90;;;;;;5118776;28;19904;-76
2024/01/15 05:23:00;;;;;;;;;;;9.00;99.90;;;;;;5119777;28;19904;-76
2024/01/15 05:25:25;;;;;;;;;;;9.00;99.90;;;;;;5119481;28;19915;-76
2024/01/15 05:27:51;;;;;;;;;;;9.00;99.90;;;;;;5120128;28;20371;-76
2024/01/15 05:30:16;;;;;;;;;;;9.00;99.90;;;;;;5119907;28;19915;-72
2024/01/15 05:32:42;;;;;;;;;;;9.00;99.90;;;;;;5107067;28;19946;-75
2024/01/15 05:35:07;;;;;;;;;;;9.00;99.90;;;;;;5119466;28;19914;-75
2024/01/15 05:37:33;;;;;;;;;;;8.90;99.90;;;;;;5119690;28;20516;-76
2024/01/15 05:39:58;;;;;;;;;;;8.90;99.90;;;;;;5117750;28;20518;-75
2024/01/15 05:42:24;;;;;;;;;;;8.90;99.90;;;;;;5119813;28;19925;-75
2024/01/15 05:44:50;;;;;;;;;;;8.90;99.90;;;;;;5117958;28;19904;-75
2024/01/15 05:47:15;;;;;;;;;;;8.90;99.90;;;;;;5119621;28;19910;-75
2024/01/15 05:49:41;;;;;;;;;;;8.90;99.90;;;;;;5117547;28;19912;-75
2024/01/15 05:52:06;;;;;;;;;;;8.80;99.90;;;;;;5109952;28;19908;-75
2024/01/15 05:54:32;;;;;;;;;;;8.90;99.90;;;;;;5109193;28;19994;-75
2024/01/15 05:56:57;;;;;;;;;;;8.90;99.90;;;;;;5118272;28;19919;-75
2024/01/15 05:59:23;;;;;;;;;;;8.90;99.90;;;;;;5116634;28;19914;-75
2024/01/15 06:01:49;;;;;;;;;;;8.90;99.90;;;;;;5113157;28;19975;-75
2024/01/15 06:04:14;;;;;;;;;;;8.90;99.90;;;;;;5111524;28;20431;-76
2024/01/15 06:06:40;;;;;;;;;;;8.90;99.90;;;;;;5119073;28;19912;-75
2024/01/15 06:09:05;;;;;;;;;;;8.80;99.90;;;;;;5118659;28;19911;-75
2024/01/15 06:11:31;;;;;;;;;;;8.80;99.90;;;;;;5117527;28;19908;-75
2024/01/15 06:13:57;;;;;;;;;;;8.80;99.90;;;;;;5119105;28;20481;-76
2024/01/15 06:16:23;;;;;;;;;;;8.80;99.90;;;;;;5110926;28;20284;-76
2024/01/15 06:18:49;;;;;;;;;;;8.80;99.90;;;;;;5118895;28;20486;-76
2024/01/15 06:21:15;;;;;;;;;;;8.80;99.90;;;;;;5118905;28;19935;-75
2024/01/15 06:23:40;;;;;;;;;;;8.80;99.90;;;;;;5118419;28;19903;-76
2024/01/15 06:26:06;;;;;;;;;;;8.80;99.90;;;;;;5118319;28;19903;-76
2024/01/15 06:28:31;;;;;;;;;;;8.80;99.90;;;;;;5117453;28;19939;-76
2024/01/15 06:30:58;;;;;;;;;;;8.80;99.90;;;;;;5118448;28;19958;-75
2024/01/15 06:33:23;;;;;;;;;;;8.80;99.90;;;;;;5112331;28;19953;-76
2024/01/15 06:35:49;;;;;;;;;;;8.80;99.90;;;;;;5117674;28;19912;-75
2024/01/15 06:38:15;;;;;;;;;;;8.80;99.90;;;;;;5118358;28;19910;-75
2024/01/15 06:40:45;;;;;;;;;;;8.80;99.90;;;;;;5118227;28;19968;-75
2024/01/15 06:43:17;;;;;;;;;;;8.80;99.90;;;;;;5116936;28;19991;-75
2024/01/15 06:45:46;;;;;;;;;;;8.80;99.90;;;;;;5111733;28;20343;-75
2024/01/15 06:48:16;;;;;;;;;;;8.80;99.90;;;;;;5118653;28;19910;-75
2024/01/15 06:50:42;;;;;;;;;;;8.80;99.90;;;;;;5117054;28;19953;-75
2024/01/15 06:53:07;;;;;;;;;;;8.80;99.90;;;;;;5116512;28;19904;-75
2024/01/15 06:55:33;;;;;;;;;;;8.80;99.90;;;;;;5110815;28;19908;-75
2024/01/15 06:57:58;;;;;;;;;;;8.80;99.90;;;;;;5116572;28;19979;-75
2024/01/15 07:00:24;;;;;;;;;;;8.80;99.90;;;;;;5116805;28;19904;-75
2024/01/15 07:02:49;;;;;;;;;;;8.80;99.90;;;;;;5118443;28;19914;-75
2024/01/15 07:05:15;;;;;;;;;;;8.80;99.90;;;;;;5117942;28;19908;-74
2024/01/15 07:07:40;;;;;;;;;;;8.70;99.90;;;;;;5116420;28;20373;-75
2024/01/15 07:10:06;;;;;;;;;;;8.80;99.90;;;;;;5116569;28;19907;-77
2024/01/15 07:12:32;;;;;;;;;;;8.80;99.90;;;;;;5113273;28;19911;-77
2024/01/15 07:14:58;;;;;;;;;;;8.70;99.90;;;;;;5097457;28;19907;-77
2024/01/15 07:17:23;;;;;;;;;;;8.80;99.90;;;;;;5093835;28;19960;-78
2024/01/15 07:19:49;;;;;;;;;;;8.80;99.90;;;;;;5106133;28;20377;-77
2024/01/15 07:22:17;;;;;;;;;;;8.80;99.90;;;;;;5099695;28;20470;-77
2024/01/15 07:24:43;;;;;;;;;;;8.80;99.90;;;;;;5091434;28;19908;-77
2024/01/15 07:27:08;;;;;;;;;;;8.80;99.90;;;;;;5090792;28;19908;-77
2024/01/15 07:29:37;;;;;;;;;;;8.80;99.90;;;;;;5102711;28;19907;-77
2024/01/15 07:32:03;;;;;;;;;;;8.80;99.90;;;;;;5100648;28;19911;-77
2024/01/15 07:34:28;;;;;;;;;;;8.80;99.90;;;;;;5098293;28;19915;-77
2024/01/15 07:36:54;;;;;;;;;;;8.80;99.90;;;;;;5093511;28;20368;-77
2024/01/15 07:39:19;;;;;;;;;;;8.80;99.90;;;;;;5094169;28;19907;-77
2024/01/15 07:41:45;;;;;;;;;;;8.80;99.90;;;;;;5090592;28;19908;-77
2024/01/15 07:44:10;;;;;;;;;;;8.90;99.90;;;;;;5097771;28;19912;-77
2024/01/15 07:46:36;;;;;;;;;;;8.80;99.90;;;;;;5102060;28;19908;-78
2024/01/15 07:49:01;;;;;;;;;;;8.80;99.90;;;;;;5099840;28;19914;-77
2024/01/15 07:51:27;;;;;;;;;;;8.90;99.90;;;;;;5100596;28;19916;-77
2024/01/15 07:53:53;;;;;;;;;;;8.90;99.90;;;;;;5098035;28;20585;-77
2024/01/15 07:56:19;;;;;;;;;;;8.90;99.90;;;;;;5099468;28;19920;-77
2024/01/15 07:58:44;;;;;;;;;;;8.90;99.90;;;;;;5098270;28;19908;-78
2024/01/15 08:01:10;;;;;;;;;;;8.90;99.90;;;;;;5099030;28;19908;-78
2024/01/15 08:03:35;;;;;;;;;;;8.90;99.90;;;;;;5110822;28;19904;-78
2024/01/15 08:06:01;;;;;;;;;;;9.00;99.90;;;;;;5111391;28;19908;-77
2024/01/15 08:08:26;;;;;;;;;;;8.90;99.90;;;;;;5108298;28;19907;-78
2024/01/15 08:10:52;;;;;;;;;;;9.00;99.90;;;;;;5091975;28;19912;-77
2024/01/15 08:13:18;;;;;;;;;;;9.00;99.90;;;;;;5090545;28;19908;-77
2024/01/15 08:15:44;;;;;;;;;;;9.10;99.90;;;;;;5094799;28;19908;-78
2024/01/15 08:18:09;;;;;;;;;;;9.10;99.90;;;;;;5095956;28;20758;-78
2024/01/15 08:20:35;;;;;;;;;;;9.20;99.90;;;;;;5094462;28;19918;-77
2024/01/15 08:23:00;;;;;;;;;;;9.20;99.90;;;;;;5096510;28;20010;-78
2024/01/15 08:25:26;;;;;;;;;;;9.20;99.90;;;;;;5097362;28;19903;-78
2024/01/15 08:27:52;;;;;;;;;;;9.30;99.90;;;;;;5094162;28;19908;-78
2024/01/15 08:30:18;;;;;;;;;;;9.30;99.90;;;;;;5095481;28;20391;-78
2024/01/15 08:32:44;;;;;;;;;;;9.30;99.90;;;;;;5112493;28;19959;-77
2024/01/15 08:35:10;;;;;;;;;;;9.30;99.90;;;;;;5111179;28;20614;-77
2024/01/15 08:37:36;;;;;;;;;;;9.30;99.90;;;;;;5113059;28;20432;-79
2024/01/15 08:40:01;;;;;;;;;;;9.30;99.90;;;;;;5115063;28;19915;-79
2024/01/15 08:42:27;;;;;;;;;;;9.30;99.90;;;;;;5113852;28;20302;-78
2024/01/15 08:44:52;;;;;;;;;;;9.40;99.90;;;;;;5115940;28;19933;-78
2024/01/15 08:47:18;;;;;;;;;;;9.40;99.90;;;;;;5113127;28;20351;-77
2024/01/15 08:49:45;;;;;;;;;;;9.50;99.90;;;;;;5115989;28;20319;-78
2024/01/15 08:52:10;;;;;;;;;;;9.60;99.90;;;;;;5114658;28;19956;-78
2024/01/15 08:54:36;;;;;;;;;;;9.60;99.90;;;;;;5117793;28;19911;-77
2024/01/15 08:57:01;;;;;;;;;;;9.60;99.90;;;;;;5117087;28;19923;-78
2024/01/15 08:59:27;;;;;;;;;;;9.60;99.90;;;;;;5120445;28;19911;-77
2024/01/15 09:01:52;;;;;;;;;;;9.60;99.90;;;;;;5120369;28;19907;-78
2024/01/15 09:04:19;;;;;;;;;;;9.60;99.90;;;;;;5120199;28;20002;-78
2024/01/15 09:06:47;;;;;;;;;;;9.70;99.90;;;;;;5119230;28;19911;-77
2024/01/15 09:09:14;;;;;;;;;;;9.70;99.90;;;;;;5106638;28;19908;-78
2024/01/15 09:11:43;;;;;;;;;;;9.70;99.90;;;;;;5118747;28;19915;-77
2024/01/15 09:14:09;;;;;;;;;;;9.70;99.90;;;;;;5118754;28;19907;-78
2024/01/15 09:16:34;;;;;;;;;;;9.70;99.90;;;;;;5115536;28;19952;-78
2024/01/15 09:19:00;;;;;;;;;;;9.80;99.90;;;;;;5119709;28;19904;-78
2024/01/15 09:21:26;;;;;;;;;;;9.70;99.90;;;;;;5120144;28;19904;-77
2024/01/15 09:23:51;;;;;;;;;;;9.80;99.90;;;;;;5118365;28;20736;-78
2024/01/15 09:26:17;;;;;;;;;;;9.80;99.90;;;;;;5109670;28;19923;-77
2024/01/15 09:28:42;;;;;;;;;;;9.90;99.90;;;;;;5118196;28;20044;-77
2024/01/15 09:31:08;;;;;;;;;;;10.00;99.90;;;;;;5119767;28;19922;-77
2024/01/15 09:33:34;;;;;;;;;;;9.90;99.90;;;;;;5118038;28;19931;-77
2024/01/15 09:36:06;;;;;;;;;;;9.90;99.90;;;;;;5119914;28;19915;-79
2024/01/15 09:38:31;;;;;;;;;;;9.90;99.90;;;;;;5101234;28;20307;-81
2024/01/15 09:40:57;;;;;;;;;;;9.90;99.90;;;;;;5113403;28;20048;-85
2024/01/15 09:43:23;;;;;;;;;;;9.80;99.90;;;;;;5113833;28;19915;-81
2024/01/15 09:45:49;;;;;;;;;;;9.80;99.90;;;;;;5117368;28;19918;-81
2024/01/15 09:48:16;;;;;;;;;;;9.80;99.90;;;;;;5114864;28;19904;-80
2024/01/15 09:50:42;;;;;;;;;;;9.90;99.90;;;;;;5116057;28;19957;-79
2024/01/15 09:53:09;;;;;;;;;;;9.90;99.90;;;;;;5111929;28;19907;-79
2024/01/15 09:55:35;;;;;;;;;;;9.90;99.90;;;;;;5110798;28;20379;-80
2024/01/15 09:58:02;;;;;;;;;;;10.00;99.90;;;;;;5114788;28;19912;-78
2024/01/15 10:00:29;;;;;;;;;;;10.00;99.90;;;;;;5116328;28;19956;-77
2024/01/15 10:02:55;;;;;;;;;;;10.20;99.90;;;;;;5114187;28;20002;-79
2024/01/15 10:05:21;;;;;;;;;;;10.20;99.90;;;;;;5116159;28;20339;-76
2024/01/15 10:07:47;;;;;;;;;;;10.30;99.90;;;;;;5111014;28;19927;-76
2024/01/15 10:10:13;;;;;;;;;;;10.20;99.90;;;;;;5111968;28;20006;-76
2024/01/15 10:12:39;;;;;;;;;;;10.30;99.90;;;;;;5111939;28;19959;-77
2024/01/15 10:15:05;;;;;;;;;;;10.30;99.90;;;;;;5110350;28;19950;-77
2024/01/15 10:17:31;;;;;;;;;;;10.20;99.90;;;;;;5114519;28;20277;-76
2024/01/15 10:19:56;;;;;;;;;;;10.20;99.90;;;;;;5116698;28;19935;-76
2024/01/15 10:22:23;;;;;;;;;;;10.20;99.90;;;;;;5113127;28;19904;-76
2024/01/15 10:24:48;;;;;;;;;;;10.20;99.90;;;;;;5113780;27;20332;-76
2024/01/15 10:27:14;;;;;;;;;;;10.20;99.90;;;;;;5114262;28;19911;-75
2024/01/15 10:29:41;;;;;;;;;;;10.30;99.90;;;;;;5112396;28;19907;-76
2024/01/15 10:32:10;;;;;;;;;;;10.30;99.90;;;;;;5115874;28;19911;-77
2024/01/15 10:34:40;;;;;;;;;;;10.40;99.90;;;;;;5109951;28;19904;-77
2024/01/15 10:37:09;;;;;;;;;;;10.50;99.90;;;;;;5113660;28;19932;-77
2024/01/15 10:39:34;;;;;;;;;;;10.60;99.90;;;;;;5113212;28;19979;-76
2024/01/15 10:42:00;;;;;;;;;;;10.60;99.90;;;;;;5114015;28;20359;-76
2024/01/15 10:44:25;;;;;;;;;;;10.60;99.90;;;;;;5115537;28;20375;-76
2024/01/15 10:46:51;;;;;;;;;;;10.50;99.90;;;;;;5109471;28;19914;-80
2024/01/15 10:49:19;;;;;;;;;;;10.50;99.90;;;;;;5114717;28;19916;-79
2024/01/15 10:51:45;;;;;;;;;;;10.60;99.90;;;;;;5112694;28;19912;-80
2024/01/15 10:54:11;;;;;;;;;;;10.60;99.90;;;;;;5114509;28;20356;-80
2024/01/15 10:56:38;;;;;;;;;;;10.70;99.90;;;;;;5113157;28;20388;-79
2024/01/15 10:59:03;;;;;;;;;;;10.60;99.90;;;;;;5115481;28;19904;-78
2024/01/15 11:01:30;;;;;;;;;;;10.70;99.90;;;;;;5110558;28;19915;-78
2024/01/15 11:03:57;;;;;;;;;;;10.70;99.90;;;;;;5115782;28;19916;-79
2024/01/15 11:06:24;;;;;;;;;;;10.70;99.90;;;;;;5113733;28;19907;-75
2024/01/15 11:08:52;;;;;;;;;;;10.70;99.90;;;;;;5107189;28;19947;-76
2024/01/15 11:11:18;;;;;;;;;;;10.80;99.90;;;;;;5115322;28;20328;-76
2024/01/15 11:13:46;;;;;;;;;;;10.90;99.90;;;;;;5110293;28;19930;-77
2024/01/15 11:16:12;;;;;;;;;;;10.90;99.90;;;;;;5106886;28;19991;-76
2024/01/15 11:18:40;;;;;;;;;;;11.00;99.90;;;;;;5112553;28;19942;-76
2024/01/15 11:21:17;;;;;;;;;;;11.00;99.90;;;;;;5112467;28;19927;-76
2024/01/15 11:23:43;;;;;;;;;;;11.00;99.90;;;;;;5110358;28;19931;-76
2024/01/15 11:26:30;;;;;;;;;;;11.00;99.90;;;;;;5113606;28;19908;-76
2024/01/15 11:28:56;;;;;;;;;;;10.90;99.90;;;;;;5109247;28;19911;-76
2024/01/15 11:31:28;;;;;;;;;;;10.90;99.90;;;;;;5111364;28;19918;-76
2024/01/15 11:33:55;;;;;;;;;;;11.00;99.90;;;;;;5113753;28;19903;-76
2024/01/15 11:36:21;;;;;;;;;;;11.00;99.90;;;;;;5108430;28;19904;-76
2024/01/15 11:38:46;;;;;;;;;;;11.00;99.90;;;;;;5115500;28;19907;-76
2024/01/15 11:41:17;;;;;;;;;;;11.00;99.90;;;;;;5112913;28;19907;-76
2024/01/15 11:43:43;;;;;;;;;;;11.00;99.90;;;;;;5109978;28;19903;-77
2024/01/15 11:46:11;;;;;;;;;;;10.90;99.90;;;;;;5113829;28;19907;-76
2024/01/15 11:48:43;;;;;;;;;;;11.00;99.90;;;;;;5111889;28;20411;-77
2024/01/15 11:51:10;;;;;;;;;;;11.00;99.90;;;;;;5110069;28;19914;-77
2024/01/15 11:53:47;;;;;;;;;;;11.10;99.90;;;;;;5102640;28;19919;-78
2024/01/15 11:56:18;;;;;;;;;;;11.10;99.90;;;;;;5091965;28;19920;-76
2024/01/15 11:58:44;;;;;;;;;;;11.00;99.90;;;;;;5093898;28;19987;-77
2024/01/15 12:01:10;;;;;;;;;;;11.00;99.90;;;;;;5094534;28;20330;-76
2024/01/15 12:03:36;;;;;;;;;;;11.00;99.90;;;;;;5096609;28;19969;-76
2024/01/15 12:06:02;;;;;;;;;;;10.90;99.90;;;;;;5099926;28;19908;-76
2024/01/15 12:08:27;;;;;;;;;;;11.00;99.90;;;;;;5094984;28;19912;-76
2024/01/15 12:10:53;;;;;;;;;;;11.10;99.90;;;;;;5097452;28;20353;-77
2024/01/15 12:13:19;;;;;;;;;;;11.00;99.90;;;;;;5098270;28;19939;-77
2024/01/15 12:15:46;;;;;;;;;;;11.00;99.90;;;;;;5096453;28;19908;-77
2024/01/15 12:18:13;;;;;;;;;;;11.10;99.90;;;;;;5091779;28;19908;-77
2024/01/15 12:20:39;;;;;;;;;;;11.10;99.90;;;;;;5091844;28;19908;-77
2024/01/15 12:23:05;;;;;;;;;;;11.20;99.90;;;;;;5091132;28;19908;-77
2024/01/15 12:25:31;;;;;;;;;;;11.20;99.90;;;;;;5093110;28;19966;-78
2024/01/15 12:27:58;;;;;;;;;;;11.20;99.90;;;;;;5098530;28;20296;-78
2024/01/15 12:30:23;;;;;;;;;;;11.20;99.90;;;;;;5099801;28;19916;-77
2024/01/15 12:32:49;;;;;;;;;;;11.30;99.90;;;;;;5099856;28;19938;-77
2024/01/15 12:35:15;;;;;;;;;;;11.40;99.90;;;;;;5099931;28;19908;-77
2024/01/15 12:37:41;;;;;;;;;;;11.50;99.90;;;;;;5096860;28;19915;-77
2024/01/15 12:40:07;;;;;;;;;;;11.50;99.90;;;;;;5098075;28;19904;-76
2024/01/15 12:42:33;;;;;;;;;;;11.50;99.90;;;;;;5107710;28;19912;-76
2024/01/15 12:45:03;;;;;;;;;;;11.50;99.90;;;;;;5112569;28;19908;-76
2024/01/15 12:47:28;;;;;;;;;;;11.60;99.90;;;;;;5103918;28;19907;-76
2024/01/15 12:49:55;;;;;;;;;;;11.60;99.90;;;;;;5099069;28;19923;-76
2024/01/15 12:52:21;;;;;;;;;;;11.50;99.90;;;;;;5106511;28;19903;-77
2024/01/15 12:54:51;;;;;;;;;;;11.50;99.90;;;;;;5112610;28;20329;-77
2024/01/15 12:57:17;;;;;;;;;;;11.60;99.90;;;;;;5114895;28;20379;-76
2024/01/15 12:59:46;;;;;;;;;;;11.50;99.90;;;;;;5111607;28;20136;-76
2024/01/15 13:02:12;;;;;;;;;;;11.50;99.90;;;;;;5115178;28;19904;-77
2024/01/15 13:04:38;;;;;;;;;;;11.50;99.90;;;;;;5115055;28;19904;-78
2024/01/15 13:07:04;;;;;;;;;;;11.50;99.90;;;;;;5114980;28;19945;-77
2024/01/15 13:09:30;;;;;;;;;;;11.50;99.90;;;;;;5114021;28;19930;-79
2024/01/15 13:11:55;;;;;;;;;;;11.50;99.90;;;;;;5115586;28;20375;-82
2024/01/15 13:14:21;;;;;;;;;;;11.60;99.90;;;;;;5107354;28;20327;-81
2024/01/15 13:16:47;;;;;;;;;;;11.60;99.90;;;;;;5109756;28;19926;-80
2024/01/15 13:19:12;;;;;;;;;;;11.60;99.90;;;;;;5114526;28;19929;-79
2024/01/15 13:21:39;;;;;;;;;;;11.60;99.90;;;;;;5114259;28;19947;-79
2024/01/15 13:24:05;;;;;;;;;;;11.60;99.90;;;;;;5113775;28;19915;-79
2024/01/15 13:26:31;;;;;;;;;;;11.60;99.90;;;;;;5102790;28;19907;-80
2024/01/15 13:28:57;;;;;;;;;;;11.70;99.90;;;;;;5096033;28;19957;-81
2024/01/15 13:31:22;;;;;;;;;;;11.70;99.90;;;;;;5101747;28;19912;-80
2024/01/15 13:33:48;;;;;;;;;;;11.80;99.90;;;;;;5089638;28;19927;-80
2024/01/15 13:36:13;;;;;;;;;;;11.80;99.90;;;;;;5091093;28;19929;-79
2024/01/15 13:38:39;;;;;;;;;;;11.90;99.90;;;;;;5090956;28;19919;-80
2024/01/15 13:41:05;;;;;;;;;;;11.90;99.90;;;;;;5093393;28;19956;-79
2024/01/15 13:43:33;;;;;;;;;;;11.90;99.90;;;;;;5107195;28;19904;-78
2024/01/15 13:45:59;;;;;;;;;;;11.80;99.90;;;;;;5096847;28;19942;-76
2024/01/15 13:48:26;;;;;;;;;;;11.80;99.90;;;;;;5093537;28;19907;-76
2024/01/15 13:50:52;;;;;;;;;;;11.70;99.90;;;;;;5094655;28;19919;-76
2024/01/15 13:53:18;;;;;;;;;;;11.70;99.90;;;;;;5093100;28;19908;-76
2024/01/15 13:55:44;;;;;;;;;;;11.60;99.90;;;;;;5093008;28;19915;-76
2024/01/15 13:58:10;;;;;;;;;;;11.60;99.90;;;;;;5093142;28;19915;-76
2024/01/15 14:00:35;;;;;;;;;;;11.60;99.90;;;;;;5095388;28;20387;-76
2024/01/15 14:03:01;;;;;;;;;;;11.60;99.90;;;;;;5098975;28;19920;-76
2024/01/15 14:05:27;;;;;;;;;;;11.50;99.90;;;;;;5092795;28;19911;-76
2024/01/15 14:07:52;;;;;;;;;;;11.60;99.90;;;;;;5094055;28;20344;-76
2024/01/15 14:10:18;;;;;;;;;;;11.60;99.90;;;;;;5094134;28;20435;-76
2024/01/15 14:12:43;;;;;;;;;;;11.60;99.90;;;;;;5094222;28;20293;-77
2024/01/15 14:15:09;;;;;;;;;;;11.60;99.90;;;;;;5096561;28;19947;-77
2024/01/15 14:17:34;;;;;;;;;;;11.60;99.90;;;;;;5093811;28;19912;-76
2024/01/15 14:20:00;;;;;;;;;;;11.60;99.90;;;;;;5094084;28;20413;-77